Terminal Aerodrome Forecast
Issued by NWS Cleveland, OH

Home | Current Version | Previous Version | Graphics & Text | Print | Product List | Glossary On
Versions: 1 2 3 4 5 6 7 8 9 10 11 12 13 14 15 16 17 18
599
FTUS41 KCLE 210158 AAB
TAFMFD
TAF AMD
KMFD 210158Z 2102/2124 18016KT P6SM VCSH SCT045 OVC100
      TEMPO 2102/2103 4SM -SHRA BR OVC045
     FM210300 22012KT P6SM VCSH SCT025 BKN045
      TEMPO 2105/2109 BKN025
     FM210900 25009KT P6SM SCT012 BKN035
      TEMPO 2109/2113 BKN012
     FM211500 27012G20KT P6SM BKN035
     FM212200 27012KT P6SM SCT025 BKN050=

USA.gov is the U.S. government's official web portal to all federal, state and local government web resources and services.